Time;durP1;ratioP1;P1;durP2;ratioP2;P2;SDS_P1;SDS_P2;PMS_P1;PMS_P2;Temp;Humidity;BMP_temperature;BMP_pressure;BME280_temperature;BME280_humidity;BME280_pressure;Samples;Min_cycle;Max_cycle;Signal;HPM_P1;HPM_P2
2021/01/07 00:00:59;;;;;;;32.90;11.63;;;;;;;17.92;50.90;155834.69;1771113;80;21355;-80
2021/01/07 00:03:38;;;;;;;36.03;11.45;;;;;;;18.03;50.81;155863.72;1773440;80;21339;-81
2021/01/07 00:06:11;;;;;;;28.30;11.10;;;;;;;18.10;50.93;155882.17;1773964;80;21954;-81
2021/01/07 00:08:44;;;;;;;26.68;10.65;;;;;;;17.80;50.58;155801.67;1773807;80;21977;-83
2021/01/07 00:11:17;;;;;;;24.35;9.65;;;;;;;17.69;50.53;155774.00;1773019;81;21307;-82
2021/01/07 00:13:49;;;;;;;21.55;8.80;;;;;;;17.66;50.59;155766.08;1773329;80;21360;-79
2021/01/07 00:16:22;;;;;;;26.23;10.05;;;;;;;17.66;50.71;155766.08;1772499;81;21233;-82
2021/01/07 00:18:55;;;;;;;22.60;10.35;;;;;;;17.63;50.36;155756.84;1769228;80;21546;-80
2021/01/07 00:21:28;;;;;;;18.55;8.85;;;;;;;17.56;50.64;155739.70;1770165;80;21316;-84
2021/01/07 00:24:00;;;;;;;21.45;9.73;;;;;;;17.63;50.64;155758.16;1771807;80;21146;-82
2021/01/07 00:26:33;;;;;;;21.52;10.15;;;;;;;17.70;50.36;155776.66;1691764;83;21172;-82
2021/01/07 00:29:06;;;;;;;17.55;9.58;;;;;;;17.55;50.35;155737.06;1771537;80;21367;-82
2021/01/07 00:31:39;;;;;;;19.15;9.10;;;;;;;17.63;50.26;155756.84;1771427;80;21887;-83
2021/01/07 00:34:11;;;;;;;16.23;9.23;;;;;;;17.53;50.33;155730.48;1769750;80;21743;-82
2021/01/07 00:36:44;;;;;;;22.58;9.70;;;;;;;17.49;50.46;155719.91;1770584;80;21185;-83
2021/01/07 00:39:17;;;;;;;17.57;8.68;;;;;;;17.34;50.57;155680.33;1773632;81;21194;-80
2021/01/07 00:41:57;;;;;;;22.17;9.48;;;;;;;17.57;50.27;155742.34;1773590;81;21378;-74
2021/01/07 00:44:30;;;;;;;22.35;9.23;;;;;;;17.65;50.16;155762.14;1773626;80;21953;-83
2021/01/07 00:47:03;;;;;;;19.55;9.30;;;;;;;17.71;50.08;155779.23;1773188;80;21375;-84
2021/01/07 00:49:36;;;;;;;19.00;9.78;;;;;;;17.78;49.83;155797.73;1772252;80;21316;-84
2021/01/07 00:52:09;;;;;;;17.25;9.25;;;;;;;17.93;49.67;155835.98;1771979;80;21852;-83
2021/01/07 00:54:42;;;;;;;21.37;9.83;;;;;;;17.86;49.67;155818.83;1772712;80;21178;-84
2021/01/07 00:57:16;;;;;;;21.45;10.70;;;;;;;17.80;49.61;155803.02;1774188;80;21371;-80
2021/01/07 00:59:51;;;;;;;19.67;9.48;;;;;;;17.95;49.36;155842.56;1775218;80;21324;-84
2021/01/07 01:02:24;;;;;;;19.00;9.60;;;;;;;17.99;49.27;155853.14;1774423;80;21417;-82
2021/01/07 01:04:56;;;;;;;19.87;9.98;;;;;;;17.93;49.51;155835.98;1774632;80;21194;-82
2021/01/07 01:07:29;;;;;;;21.10;10.70;;;;;;;18.00;49.53;155855.78;1775424;80;21383;-84
2021/01/07 01:10:04;;;;;;;22.58;10.63;;;;;;;18.07;49.45;155874.23;1772887;80;21363;-84
2021/01/07 01:12:38;;;;;;;20.68;9.55;;;;;;;18.12;49.45;155887.45;1772516;80;21383;-84
2021/01/07 01:15:13;;;;;;;17.48;9.53;;;;;;;18.17;49.37;155900.63;1742076;81;21267;-83
2021/01/07 01:17:45;;;;;;;16.87;9.25;;;;;;;18.19;49.33;155905.91;1772998;80;21388;-84
2021/01/07 01:20:17;;;;;;;18.82;10.55;;;;;;;18.08;49.20;155876.87;1773283;80;21339;-83
2021/01/07 01:22:50;;;;;;;16.17;9.18;;;;;;;18.11;49.16;155884.81;1773587;80;21245;-81
2021/01/07 01:25:23;;;;;;;16.97;9.18;;;;;;;18.09;49.19;155879.53;1773672;80;21842;-82
2021/01/07 01:27:55;;;;;;;16.82;9.55;;;;;;;18.07;49.12;155872.94;1773946;80;21229;-82
2021/01/07 01:30:28;;;;;;;18.98;10.65;;;;;;;18.00;49.20;155854.44;1773827;81;21217;-81
2021/01/07 01:33:01;;;;;;;18.20;8.93;;;;;;;17.92;49.17;155834.69;1773862;80;21410;-81
2021/01/07 01:35:34;;;;;;;18.85;9.20;;;;;;;17.89;49.18;155826.75;1774014;80;21826;-82
2021/01/07 01:38:07;;;;;;;17.65;10.13;;;;;;;17.76;49.41;155792.45;1775369;80;21218;-84
2021/01/07 01:40:40;;;;;;;18.32;9.43;;;;;;;17.65;49.45;155762.14;1775644;80;21348;-82
2021/01/07 01:43:13;;;;;;;19.57;10.13;;;;;;;17.70;49.42;155776.66;1771652;80;21706;-79
2021/01/07 01:45:45;;;;;;;22.32;10.65;;;;;;;17.71;49.46;155777.94;1774981;80;21677;-82
2021/01/07 01:48:19;;;;;;;21.07;10.45;;;;;;;17.70;49.48;155775.30;1771292;80;21320;-80
2021/01/07 01:50:52;;;;;;;21.40;10.63;;;;;;;17.64;49.42;155759.50;1774056;80;21328;-81
2021/01/07 01:53:25;;;;;;;20.17;10.93;;;;;;;17.55;49.58;155737.06;1775101;80;21430;-78
2021/01/07 01:55:58;;;;;;;25.65;12.30;;;;;;;17.32;49.92;155675.05;1772885;81;21379;-79
2021/01/07 01:58:31;;;;;;;25.48;10.95;;;;;;;17.60;49.68;155750.22;1773781;80;21442;-78
2021/01/07 02:01:04;;;;;;;29.02;11.45;;;;;;;17.83;49.41;155810.91;1775386;81;21214;-79
2021/01/07 02:03:41;;;;;;;22.95;9.90;;;;;;;17.87;49.47;155821.47;1774711;80;21426;-79
2021/01/07 02:06:15;;;;;;;25.72;11.48;;;;;;;18.07;49.27;155874.23;1775637;80;21388;-78
2021/01/07 02:08:48;;;;;;;22.27;11.93;;;;;;;17.99;49.13;155853.14;1774852;80;21367;-81
2021/01/07 02:11:21;;;;;;;24.05;9.78;;;;;;;18.02;49.11;155859.72;1773683;80;21376;-78
2021/01/07 02:13:53;;;;;;;22.20;10.85;;;;;;;17.97;49.33;155847.84;1773767;80;21415;-80
2021/01/07 02:16:26;;;;;;;21.07;10.48;;;;;;;18.16;48.97;155899.33;1773910;80;21363;-81
2021/01/07 02:18:58;;;;;;;20.85;10.50;;;;;;;18.16;48.78;155899.33;1771246;80;21358;-81
2021/01/07 02:21:40;;;;;;;18.65;9.60;;;;;;;18.25;48.71;155921.83;1772660;80;21855;-80
2021/01/07 02:24:14;;;;;;;16.60;9.30;;;;;;;18.32;48.36;155941.63;1772415;80;21233;-79
2021/01/07 02:26:46;;;;;;;20.05;9.58;;;;;;;18.31;48.24;155937.64;1773322;80;21285;-79
2021/01/07 02:29:18;;;;;;;17.65;9.15;;;;;;;18.20;48.32;155909.91;1773901;80;21347;-79
2021/01/07 02:31:51;;;;;;;19.45;10.05;;;;;;;17.94;48.82;155838.63;1772495;80;21695;-79
2021/01/07 02:34:25;;;;;;;17.67;9.43;;;;;;;18.14;48.73;155892.73;1772381;80;21439;-77
2021/01/07 02:36:58;;;;;;;17.20;9.53;;;;;;;18.23;48.56;155916.53;1772692;81;21379;-77
2021/01/07 02:39:31;;;;;;;20.15;10.03;;;;;;;18.17;48.56;155900.63;1774692;80;21391;-76
2021/01/07 02:42:04;;;;;;;15.90;8.88;;;;;;;18.05;48.80;155867.66;1775432;80;21375;-78
2021/01/07 02:44:38;;;;;;;17.85;9.33;;;;;;;18.12;48.74;155888.75;1774858;80;21261;-79
2021/01/07 02:47:11;;;;;;;18.05;9.13;;;;;;;18.08;48.80;155876.87;1774448;80;21845;-79
2021/01/07 02:49:43;;;;;;;16.57;8.93;;;;;;;18.16;48.74;155898.03;1774058;80;21352;-78
2021/01/07 02:52:16;;;;;;;15.30;8.35;;;;;;;18.28;48.64;155929.75;1775493;80;21327;-79
2021/01/07 02:54:49;;;;;;;16.65;8.60;;;;;;;18.23;48.45;155917.83;1774457;81;21229;-76
2021/01/07 02:57:22;;;;;;;15.95;9.13;;;;;;;18.19;48.60;155907.25;1771264;80;21367;-78
2021/01/07 02:59:55;;;;;;;15.10;8.75;;;;;;;18.22;48.70;155915.25;1770934;81;21359;-78
2021/01/07 03:02:27;;;;;;;17.35;8.80;;;;;;;18.41;48.42;155964.03;1775686;80;21177;-77
2021/01/07 03:05:00;;;;;;;22.50;9.70;;;;;;;18.39;48.53;155958.78;1683678;83;21422;-78
2021/01/07 03:07:32;;;;;;;16.52;8.10;;;;;;;18.45;48.35;155974.61;1774706;81;21182;-78
2021/01/07 03:10:10;;;;;;;14.75;8.45;;;;;;;18.43;48.17;155969.31;1774236;80;21224;-77
2021/01/07 03:12:43;;;;;;;13.95;7.95;;;;;;;18.31;48.13;155937.64;1773732;81;21847;-81
2021/01/07 03:15:15;;;;;;;15.30;9.08;;;;;;;18.30;48.22;155936.34;1776929;81;21344;-73
2021/01/07 03:17:48;;;;;;;14.33;8.68;;;;;;;18.26;48.29;155924.47;1773234;81;21355;-74
2021/01/07 03:20:21;;;;;;;14.60;8.38;;;;;;;18.31;48.22;155938.98;1774839;81;21375;-74
2021/01/07 03:22:53;;;;;;;15.90;8.88;;;;;;;18.41;48.25;155964.03;1776025;80;21348;-74
2021/01/07 03:25:25;;;;;;;16.20;9.20;;;;;;;18.37;48.10;155953.50;1774725;81;21320;-74
2021/01/07 03:27:58;;;;;;;16.10;8.73;;;;;;;18.24;48.29;155919.19;1774676;81;21327;-74
2021/01/07 03:30:30;;;;;;;16.62;9.38;;;;;;;18.32;48.22;155940.28;1775099;81;21334;-74
2021/01/07 03:33:03;;;;;;;15.75;8.53;;;;;;;18.02;48.68;155861.08;1774915;81;21180;-75
2021/01/07 03:35:35;;;;;;;16.60;8.75;;;;;;;18.10;48.58;155880.87;1774854;81;21189;-73
2021/01/07 03:38:07;;;;;;;20.37;9.80;;;;;;;18.10;48.62;155880.87;1774857;81;21696;-74
2021/01/07 03:40:40;;;;;;;17.75;9.58;;;;;;;18.07;48.74;155874.23;1775183;81;21162;-73
2021/01/07 03:43:12;;;;;;;18.70;9.15;;;;;;;18.02;48.68;155861.08;1775157;81;21664;-74
2021/01/07 03:45:45;;;;;;;18.50;9.80;;;;;;;18.03;48.71;155862.38;1774808;81;21201;-74
2021/01/07 03:48:17;;;;;;;17.02;8.60;;;;;;;17.99;48.80;155853.14;1774900;81;21214;-73
2021/01/07 03:50:50;;;;;;;16.80;9.08;;;;;;;17.97;48.94;155846.56;1774723;81;21194;-73
2021/01/07 03:53:22;;;;;;;18.32;9.33;;;;;;;17.99;49.06;155851.84;1774868;81;21696;-74
2021/01/07 03:55:54;;;;;;;17.40;9.48;;;;;;;18.04;48.99;155866.36;1775174;81;21851;-73
2021/01/07 03:58:26;;;;;;;16.95;8.50;;;;;;;18.00;48.90;155854.44;1774938;81;21182;-74
2021/01/07 04:00:59;;;;;;;14.15;7.90;;;;;;;18.06;48.86;155871.59;1774746;81;21325;-73
2021/01/07 04:03:31;;;;;;;14.40;8.05;;;;;;;18.08;48.71;155875.58;1774764;81;21217;-74
2021/01/07 04:06:04;;;;;;;19.10;9.03;;;;;;;18.18;48.53;155904.61;1774719;81;21201;-73
2021/01/07 04:08:36;;;;;;;17.10;8.68;;;;;;;18.18;48.54;155903.27;1774903;81;21189;-74
2021/01/07 04:11:08;;;;;;;16.07;8.63;;;;;;;17.98;49.08;155849.20;1774932;81;21202;-75
2021/01/07 04:13:41;;;;;;;17.40;8.80;;;;;;;18.00;49.13;155855.78;1774776;81;21212;-74
2021/01/07 04:16:14;;;;;;;14.87;8.35;;;;;;;18.03;48.95;155862.38;1774724;81;21178;-74
2021/01/07 04:18:46;;;;;;;14.18;8.33;;;;;;;18.03;48.87;155863.72;1774827;81;21194;-74
2021/01/07 04:21:21;;;;;;;16.80;8.15;;;;;;;18.11;48.98;155884.81;1758804;81;21419;-74
2021/01/07 04:23:53;;;;;;;14.33;7.60;;;;;;;18.10;49.04;155880.87;1752464;82;21257;-75
2021/01/07 04:26:25;;;;;;;12.43;7.47;;;;;;;18.16;48.96;155899.33;1752243;82;21249;-74
2021/01/07 04:28:58;;;;;;;15.13;7.47;;;;;;;18.14;48.91;155892.73;1752322;82;21897;-74
2021/01/07 04:31:30;;;;;;;12.85;7.40;;;;;;;18.14;48.81;155892.73;1752614;82;21337;-74
2021/01/07 04:34:02;;;;;;;14.60;7.12;;;;;;;18.12;48.81;155887.45;1752407;82;21391;-74
2021/01/07 04:36:34;;;;;;;15.25;7.75;;;;;;;18.18;48.85;155903.27;1752507;82;21344;-74
2021/01/07 04:39:07;;;;;;;16.07;7.75;;;;;;;18.23;48.72;155916.53;1752597;82;21186;-74
2021/01/07 04:41:39;;;;;;;12.55;6.62;;;;;;;18.10;48.80;155880.87;1752340;82;21364;-73
2021/01/07 04:44:12;;;;;;;13.72;7.55;;;;;;;18.13;48.87;155891.39;1752657;82;21388;-73
2021/01/07 04:46:44;;;;;;;12.30;6.45;;;;;;;18.11;48.84;155884.81;1752693;82;21700;-74
2021/01/07 04:49:17;;;;;;;10.78;6.28;;;;;;;18.09;49.01;155879.53;1752364;82;21380;-74
2021/01/07 04:51:49;;;;;;;14.65;6.15;;;;;;;18.12;49.14;155887.45;1752568;82;21418;-70
2021/01/07 04:54:21;;;;;;;15.30;6.92;;;;;;;17.99;49.42;155851.84;1752948;82;21301;-74
2021/01/07 04:56:54;;;;;;;13.32;6.50;;;;;;;17.86;49.87;155817.53;1752380;82;21367;-74
2021/01/07 04:59:26;;;;;;;11.68;6.75;;;;;;;18.09;49.38;155879.53;1752632;82;21190;-75
2021/01/07 05:01:58;;;;;;;12.40;6.65;;;;;;;17.75;49.86;155788.52;1752549;82;21415;-74
2021/01/07 05:04:31;;;;;;;12.20;6.53;;;;;;;17.94;49.74;155839.92;1752687;82;21887;-74
2021/01/07 05:07:05;;;;;;;13.38;6.72;;;;;;;18.04;49.57;155865.00;1752216;82;21906;-75
2021/01/07 05:09:38;;;;;;;13.85;6.37;;;;;;;18.14;49.54;155892.73;1684711;82;21171;-74
2021/01/07 05:12:12;;;;;;;13.48;7.00;;;;;;;18.27;49.32;155927.11;1752353;82;22657;-74
2021/01/07 05:14:46;;;;;;;12.07;7.00;;;;;;;18.30;49.30;155935.00;1752446;82;21222;-74
2021/01/07 05:17:19;;;;;;;12.88;6.78;;;;;;;18.29;49.23;155932.34;1752566;82;21371;-75
2021/01/07 05:19:51;;;;;;;10.08;5.70;;;;;;;18.12;49.63;155887.45;1752476;82;21927;-76
2021/01/07 05:22:45;;;;;;;13.90;7.35;;;;;;;18.20;49.53;155909.91;1752216;82;21403;-75
2021/01/07 05:25:18;;;;;;;10.88;6.58;;;;;;;18.15;49.60;155896.69;1745187;82;21353;-74
2021/01/07 05:27:50;;;;;;;12.50;7.35;;;;;;;18.36;49.45;155950.86;1742892;82;21689;-74
2021/01/07 05:30:23;;;;;;;12.20;6.55;;;;;;;18.46;49.30;155977.25;1746667;82;21332;-75
2021/01/07 05:33:07;;;;;;;11.85;6.60;;;;;;;18.52;49.26;155994.41;1746566;82;21796;-75
2021/01/07 05:35:40;;;;;;;11.63;6.35;;;;;;;18.58;49.16;156008.94;1743125;82;21277;-75
2021/01/07 05:38:12;;;;;;;11.83;6.37;;;;;;;18.50;49.23;155987.83;1743051;82;21325;-75
2021/01/07 05:40:44;;;;;;;10.85;5.85;;;;;;;18.54;49.26;155999.70;1742564;82;21175;-75
2021/01/07 05:43:17;;;;;;;12.47;7.33;;;;;;;18.50;49.28;155989.13;1746518;81;21356;-74
2021/01/07 05:45:53;;;;;;;13.88;7.70;;;;;;;18.61;49.10;156018.16;1742772;82;21194;-70
2021/01/07 05:48:27;;;;;;;12.68;6.58;;;;;;;18.63;49.13;156023.45;1723025;82;21195;-74
2021/01/07 05:50:59;;;;;;;13.98;7.40;;;;;;;18.61;49.03;156018.16;1746701;81;21879;-74
2021/01/07 05:53:33;;;;;;;16.97;7.28;;;;;;;18.67;49.13;156034.03;1742567;82;21332;-74
2021/01/07 05:56:06;;;;;;;17.82;8.30;;;;;;;18.61;49.06;156018.16;1742745;82;21258;-74
2021/01/07 05:58:39;;;;;;;17.65;8.75;;;;;;;18.53;49.10;155995.70;1742549;82;21187;-75
2021/01/07 06:01:11;;;;;;;24.25;9.33;;;;;;;18.44;49.23;155973.31;1742726;82;21190;-75
2021/01/07 06:03:54;;;;;;;24.82;10.40;;;;;;;18.46;49.22;155977.25;1742779;82;21333;-75
2021/01/07 06:06:27;;;;;;;28.57;11.55;;;;;;;18.47;49.29;155979.89;1742681;82;21380;-75
2021/01/07 06:08:59;;;;;;;36.93;11.50;;;;;;;18.52;49.26;155994.41;1746367;82;21175;-75
2021/01/07 06:11:31;;;;;;;35.92;12.95;;;;;;;18.53;49.23;155995.70;1742405;82;21363;-74
2021/01/07 06:14:04;;;;;;;42.78;13.68;;;;;;;18.48;49.29;155983.83;1742698;82;21430;-74
2021/01/07 06:16:36;;;;;;;45.75;14.87;;;;;;;18.36;49.38;155950.86;1742389;82;21391;-76
2021/01/07 06:19:31;;;;;;;42.20;13.95;;;;;;;18.32;49.57;155940.28;1742757;82;21210;-75
2021/01/07 06:22:09;;;;;;;39.65;15.00;;;;;;;18.56;49.24;156005.00;1742671;82;21245;-75
2021/01/07 06:24:43;;;;;;;45.17;15.63;;;;;;;18.54;49.22;155998.36;1742275;82;21248;-75
2021/01/07 06:27:33;;;;;;;44.23;15.43;;;;;;;18.52;49.28;155993.06;1742621;82;21815;-75
2021/01/07 06:30:13;;;;;;;47.53;15.72;;;;;;;18.43;49.37;155970.66;1742768;82;21336;-75
2021/01/07 06:32:47;;;;;;;42.65;14.20;;;;;;;18.32;49.70;155941.63;1742940;82;21360;-74
2021/01/07 06:35:20;;;;;;;41.00;13.68;;;;;;;18.24;49.90;155919.19;1742588;82;21210;-75
2021/01/07 06:37:53;;;;;;;34.92;12.78;;;;;;;18.11;50.46;155886.11;1742434;82;21328;-74
2021/01/07 06:40:25;;;;;;;41.55;14.63;;;;;;;18.17;50.24;155901.97;1742852;82;21182;-74
2021/01/07 06:42:57;;;;;;;36.88;12.73;;;;;;;18.12;50.26;155887.45;1742785;82;21218;-73
2021/01/07 06:45:29;;;;;;;37.58;13.65;;;;;;;18.41;49.96;155965.37;1742762;82;21281;-74
2021/01/07 06:48:03;;;;;;;36.25;13.08;;;;;;;18.42;50.04;155966.67;1746282;82;21230;-75
2021/01/07 06:50:39;;;;;;;25.72;11.28;;;;;;;18.37;50.06;155954.80;1722309;82;21363;-75
2021/01/07 06:53:11;;;;;;;31.02;10.85;;;;;;;18.31;50.32;155938.98;1746328;82;21329;-74
2021/01/07 06:55:43;;;;;;;28.10;11.55;;;;;;;18.33;51.34;155944.28;1742469;82;21345;-73
2021/01/07 06:58:19;;;;;;;24.85;10.23;;;;;;;18.43;51.54;155970.66;1746289;82;21344;-73
2021/01/07 07:00:52;;;;;;;26.87;9.58;;;;;;;18.42;51.92;155966.67;1742799;82;21372;-74
2021/01/07 07:03:25;;;;;;;22.93;9.60;;;;;;;18.31;52.02;155938.98;1663382;83;21255;-74
2021/01/07 07:05:57;;;;;;;20.05;8.88;;;;;;;18.07;52.36;155874.23;1706933;84;21236;-72
2021/01/07 07:08:34;;;;;;;19.02;8.15;;;;;;;18.08;52.41;155876.87;1687494;84;21351;-73
2021/01/07 07:11:11;;;;;;;17.48;8.53;;;;;;;18.21;52.37;155912.55;1706808;84;21707;-73
2021/01/07 07:13:44;;;;;;;14.20;7.75;;;;;;;18.11;52.29;155886.11;1706912;84;21192;-74
2021/01/07 07:16:17;;;;;;;15.83;8.10;;;;;;;18.22;52.04;155915.25;1707159;83;21302;-74
2021/01/07 07:18:49;;;;;;;15.18;7.78;;;;;;;18.28;51.94;155929.75;1710558;84;21201;-74
2021/01/07 07:21:26;;;;;;;13.98;6.55;;;;;;;18.35;51.82;155948.22;1710381;84;21271;-73
2021/01/07 07:24:08;;;;;;;15.05;8.63;;;;;;;18.41;51.65;155964.03;1707080;84;21208;-75
2021/01/07 07:26:42;;;;;;;16.65;8.18;;;;;;;18.48;51.08;155983.83;1709114;84;21896;-72
2021/01/07 07:29:16;;;;;;;13.83;7.25;;;;;;;18.48;50.95;155982.53;1707022;84;22329;-74
2021/01/07 07:31:49;;;;;;;13.72;7.20;;;;;;;18.62;50.68;156019.52;1708514;83;21385;-69
2021/01/07 07:34:33;;;;;;;16.80;8.15;;;;;;;18.59;50.61;156011.58;1707225;84;21358;-76
2021/01/07 07:37:09;;;;;;;25.43;12.43;;;;;;;18.55;50.41;156001.00;1688446;84;21236;-75
2021/01/07 07:39:41;;;;;;;103.83;46.88;;;;;;;18.72;50.34;156045.91;1680644;84;21704;-76
2021/01/07 07:42:14;;;;;;;32.50;18.82;;;;;;;18.78;50.07;156063.08;1700139;83;21178;-76
2021/01/07 07:44:48;;;;;;;15.78;9.13;;;;;;;18.73;50.12;156048.56;1702234;84;21334;-76
2021/01/07 07:47:23;;;;;;;12.70;7.50;;;;;;;18.71;50.03;156044.56;1682638;84;21205;-75
2021/01/07 07:49:57;;;;;;;13.93;7.85;;;;;;;18.72;49.92;156045.91;1686642;84;21182;-77
2021/01/07 07:52:29;;;;;;;12.98;7.03;;;;;;;18.85;49.60;156081.55;1768645;80;21351;-78
2021/01/07 07:55:06;;;;;;;12.18;6.50;;;;;;;18.64;49.97;156024.75;1756675;81;21363;-77
2021/01/07 07:57:48;;;;;;;12.37;6.97;;;;;;;18.79;49.89;156064.38;1768809;81;21732;-77
2021/01/07 08:00:21;;;;;;;13.43;6.72;;;;;;;18.89;49.82;156090.78;1777428;81;21822;-78
2021/01/07 08:02:53;;;;;;;15.50;8.08;;;;;;;18.84;49.79;156077.59;1777256;81;21418;-77
2021/01/07 08:05:30;;;;;;;15.23;8.00;;;;;;;18.90;49.64;156094.77;1777435;80;21343;-81
2021/01/07 08:08:02;;;;;;;12.90;7.80;;;;;;;18.92;49.71;156098.70;1782643;80;21380;-77
2021/01/07 08:10:35;;;;;;;13.48;7.08;;;;;;;19.03;49.53;156127.77;1746447;80;21174;-77
2021/01/07 08:13:08;;;;;;;16.93;9.18;;;;;;;19.09;49.47;156144.94;1730727;81;21219;-76
2021/01/07 08:15:42;;;;;;;15.25;7.60;;;;;;;19.11;49.35;156151.58;1706673;82;21922;-73
2021/01/07 08:18:21;;;;;;;12.03;6.75;;;;;;;19.09;49.28;156146.28;1667219;82;21263;-81
2021/01/07 08:20:57;;;;;;;18.85;9.45;;;;;;;19.15;49.23;156162.16;1721484;82;21422;-80
2021/01/07 08:23:30;;;;;;;15.58;7.62;;;;;;;19.00;49.58;156119.81;1721327;82;21470;-78
2021/01/07 08:26:03;;;;;;;14.15;7.00;;;;;;;18.96;49.60;156109.30;1721348;82;21406;-75
2021/01/07 08:28:46;;;;;;;13.58;6.85;;;;;;;18.93;49.83;156101.36;1720537;82;21410;-75
2021/01/07 08:31:24;;;;;;;16.48;8.20;;;;;;;19.03;49.78;156127.77;1718592;82;21445;-81
2021/01/07 08:33:56;;;;;;;16.37;7.90;;;;;;;19.11;49.80;156151.58;1722216;82;21284;-86
2021/01/07 08:36:31;;;;;;;12.65;6.67;;;;;;;19.10;49.72;156148.88;1738987;81;21222;-75
2021/01/07 08:39:03;;;;;;;14.33;6.75;;;;;;;19.03;49.83;156129.11;1738615;82;21721;-76
2021/01/07 08:41:36;;;;;;;14.60;7.30;;;;;;;19.14;49.74;156159.52;1738917;81;21178;-77
2021/01/07 08:44:09;;;;;;;15.00;6.60;;;;;;;19.18;49.76;156170.09;1737870;82;21159;-74
2021/01/07 08:46:43;;;;;;;12.20;6.33;;;;;;;19.16;49.72;156164.80;1737698;82;21229;-72
2021/01/07 08:49:18;;;;;;;15.53;7.90;;;;;;;18.85;50.32;156080.25;1736961;81;21162;-71
2021/01/07 08:51:55;;;;;;;14.15;6.55;;;;;;;18.86;50.40;156084.19;1708746;82;21805;-74
2021/01/07 08:54:29;;;;;;;14.28;7.72;;;;;;;18.85;50.64;156081.55;1737180;82;21241;-74
2021/01/07 08:57:05;;;;;;;16.02;7.97;;;;;;;18.85;51.08;156081.55;1737961;82;21260;-74
2021/01/07 08:59:40;;;;;;;15.53;9.60;;;;;;;18.78;51.15;156063.08;1709520;82;21789;-72
2021/01/07 09:02:19;;;;;;;15.38;7.80;;;;;;;18.74;51.91;156052.50;1738359;81;21764;-73
2021/01/07 09:04:54;;;;;;;14.45;7.42;;;;;;;19.00;51.00;156119.81;1737286;81;21230;-73
2021/01/07 09:07:25;;;;;;;16.85;7.80;;;;;;;18.99;51.57;156117.19;1737772;81;21201;-73
2021/01/07 09:09:59;;;;;;;17.70;8.28;;;;;;;19.01;51.19;156123.81;1727565;82;21371;-73
2021/01/07 09:12:35;;;;;;;19.05;8.33;;;;;;;19.10;51.33;156147.58;1774463;80;21375;-73
2021/01/07 09:15:25;;;;;;;17.30;8.55;;;;;;;19.03;51.71;156130.41;1774880;80;21348;-75
2021/01/07 09:17:57;;;;;;;16.37;7.65;;;;;;;18.91;51.80;156096.06;1773356;80;21419;-74
2021/01/07 09:20:32;;;;;;;18.10;7.80;;;;;;;18.84;51.81;156078.89;1775051;80;21352;-75
2021/01/07 09:23:10;;;;;;;16.90;7.72;;;;;;;18.89;51.55;156092.12;1773297;81;21466;-73
2021/01/07 09:25:42;;;;;;;16.80;8.15;;;;;;;19.06;52.54;156137.00;1774731;80;21423;-77
2021/01/07 09:28:15;;;;;;;21.30;8.58;;;;;;;18.81;52.05;156070.97;1774745;80;21360;-76
2021/01/07 09:30:48;;;;;;;13.58;7.03;;;;;;;18.88;51.80;156089.47;1774229;80;21390;-76
2021/01/07 09:33:20;;;;;;;13.15;6.17;;;;;;;18.96;51.63;156110.59;1775381;80;21400;-80
2021/01/07 09:35:53;;;;;;;12.47;6.50;;;;;;;19.03;51.59;156129.11;1775299;80;21310;-74
2021/01/07 09:38:27;;;;;;;13.38;7.12;;;;;;;19.22;51.10;156179.33;1775179;81;21808;-72
2021/01/07 09:40:59;;;;;;;11.60;5.87;;;;;;;19.37;50.99;156220.27;1772970;81;21399;-73
2021/01/07 09:43:35;;;;;;;10.90;5.55;;;;;;;19.51;52.09;156257.28;1772649;80;21318;-74
2021/01/07 09:46:08;;;;;;;9.90;5.15;;;;;;;19.75;50.81;156319.34;1772720;80;21328;-73
2021/01/07 09:48:42;;;;;;;12.40;6.20;;;;;;;19.91;50.12;156362.95;1770752;80;21384;-73
2021/01/07 09:51:17;;;;;;;10.95;5.33;;;;;;;19.77;50.29;156326.00;1771189;80;21324;-76
2021/01/07 09:53:49;;;;;;;11.15;6.05;;;;;;;19.98;49.84;156380.19;1770886;81;21276;-72
2021/01/07 09:56:22;;;;;;;13.75;5.70;;;;;;;19.83;50.48;156341.83;1772387;80;21331;-74
2021/01/07 09:58:55;;;;;;;9.50;4.92;;;;;;;19.70;50.23;156307.47;1771436;80;21339;-74
2021/01/07 10:01:27;;;;;;;8.48;5.20;;;;;;;19.62;50.38;156284.98;1774642;80;21285;-76
2021/01/07 10:03:59;;;;;;;8.70;4.58;;;;;;;19.44;50.63;156238.75;1773290;80;21225;-75
2021/01/07 10:06:32;;;;;;;9.33;4.80;;;;;;;19.60;49.95;156279.75;1773046;80;21412;-76
2021/01/07 10:09:07;;;;;;;7.90;4.70;;;;;;;19.32;50.45;156205.75;1774015;80;21221;-76
2021/01/07 10:11:39;;;;;;;8.48;4.15;;;;;;;19.33;50.53;156208.39;1773465;80;21473;-74
2021/01/07 10:14:12;;;;;;;11.53;5.40;;;;;;;19.61;50.26;156282.39;1774102;80;21261;-73
2021/01/07 10:16:53;;;;;;;9.08;4.78;;;;;;;19.71;50.63;156310.11;1774779;80;21359;-75
2021/01/07 10:19:27;;;;;;;6.55;3.92;;;;;;;19.71;50.15;156308.81;1774743;80;21418;-75
2021/01/07 10:22:12;;;;;;;7.10;4.10;;;;;;;19.75;49.90;156320.69;1774996;80;21304;-75
2021/01/07 10:24:47;;;;;;;4.90;3.05;;;;;;;19.82;49.85;156337.87;1774410;80;21264;-73
2021/01/07 10:27:20;;;;;;;5.22;3.17;;;;;;;19.85;49.60;156345.83;1775787;80;21332;-74
2021/01/07 10:29:52;;;;;;;7.87;4.90;;;;;;;19.61;50.32;156282.39;1773300;80;21395;-74
2021/01/07 10:32:25;;;;;;;8.63;5.15;;;;;;;19.59;50.38;156278.39;1774385;80;21213;-72
2021/01/07 10:34:57;;;;;;;8.38;5.30;;;;;;;19.63;50.37;156287.64;1774465;81;21383;-76
2021/01/07 10:37:29;;;;;;;8.50;4.37;;;;;;;19.61;50.40;156283.69;1743992;81;21233;-74
2021/01/07 10:40:04;;;;;;;10.72;5.90;;;;;;;19.72;50.25;156311.45;1773854;80;21744;-75
2021/01/07 10:42:36;;;;;;;7.58;4.47;;;;;;;19.55;50.55;156266.50;1740032;80;21382;-73
2021/01/07 10:45:13;;;;;;;8.13;4.47;;;;;;;19.58;50.54;156275.75;1771587;80;21371;-73
2021/01/07 10:47:46;;;;;;;8.85;4.62;;;;;;;19.53;52.04;156262.56;1773033;81;21355;-73
2021/01/07 10:50:21;;;;;;;10.88;4.80;;;;;;;19.45;50.79;156241.39;1741673;81;21386;-74
2021/01/07 10:53:01;;;;;;;10.20;4.80;;;;;;;19.51;50.71;156257.28;1771605;80;21380;-75
2021/01/07 10:55:34;;;;;;;10.60;5.67;;;;;;;19.49;50.85;156251.98;1771815;80;21316;-73
2021/01/07 10:58:55;;;;;;;10.32;5.62;;;;;;;19.47;50.89;156246.69;1774122;80;21716;-73
2021/01/07 11:02:01;;;;;;;11.75;6.58;;;;;;;19.64;50.65;156291.63;1686007;81;21201;-75
2021/01/07 11:05:04;;;;;;;13.93;7.25;;;;;;;19.70;50.78;156307.47;1774324;80;21312;-74
2021/01/07 11:07:41;;;;;;;12.58;6.75;;;;;;;19.73;50.70;156315.41;1773458;81;21324;-72
2021/01/07 11:10:14;;;;;;;9.98;5.95;;;;;;;19.73;50.53;156315.41;1760695;80;21419;-77
2021/01/07 11:12:56;;;;;;;12.73;6.40;;;;;;;19.52;50.76;156258.56;1772334;80;21186;-74
2021/01/07 11:15:29;;;;;;;11.50;5.67;;;;;;;19.69;50.55;156304.81;1770211;81;21879;-75
2021/01/07 11:18:08;;;;;;;11.78;5.95;;;;;;;19.74;50.47;156316.70;1772023;80;21185;-75
2021/01/07 11:20:45;;;;;;;13.88;6.72;;;;;;;19.73;50.62;156314.11;1771963;80;21367;-74
2021/01/07 11:23:17;;;;;;;9.85;5.92;;;;;;;19.84;50.41;156344.47;1773696;80;21320;-74
2021/01/07 11:25:50;;;;;;;12.20;6.25;;;;;;;19.84;50.43;156343.17;1773042;81;22058;-72
2021/01/07 11:28:22;;;;;;;14.23;6.20;;;;;;;19.76;50.53;156322.00;1774934;80;21677;-74
2021/01/07 11:30:55;;;;;;;9.23;5.70;;;;;;;19.75;50.49;156320.69;1774044;80;21331;-76
2021/01/07 11:33:27;;;;;;;13.53;6.30;;;;;;;19.68;51.73;156300.87;1771094;81;21765;-73
2021/01/07 11:36:00;;;;;;;12.82;5.65;;;;;;;19.74;50.91;156318.06;1771256;80;21240;-72
2021/01/07 11:38:33;;;;;;;17.15;6.92;;;;;;;19.66;50.91;156295.58;1775360;80;21205;-71
2021/01/07 11:41:11;;;;;;;13.35;6.22;;;;;;;19.59;51.03;156278.39;1777459;80;21387;-72
2021/01/07 11:44:00;;;;;;;16.17;7.72;;;;;;;19.56;51.32;156270.45;1772536;80;21308;-72
2021/01/07 11:46:35;;;;;;;18.25;9.38;;;;;;;19.46;51.29;156242.73;1774869;80;21426;-71
2021/01/07 11:49:09;;;;;;;18.50;9.58;;;;;;;19.62;51.03;156284.98;1776315;80;21233;-75